Time;durP1;ratioP1;P1;durP2;ratioP2;P2;SDS_P1;SDS_P2;PMS_P1;PMS_P2;Temp;Humidity;BMP_temperature;BMP_pressure;BME280_temperature;BME280_humidity;BME280_pressure;Samples;Min_cycle;Max_cycle;Signal;HPM_P1;HPM_P2
2021/04/17 00:01:32;;;;;;;6.75;3.83;;;;;;;;;;5094715;28;20548;-64
2021/04/17 00:03:59;;;;;;;9.80;3.95;;;;;;;;;;5096110;28;20028;-63
2021/04/17 00:06:25;;;;;;;6.93;3.90;;;;;;;;;;5095684;28;20046;-64
2021/04/17 00:08:51;;;;;;;6.68;3.97;;;;;;;;;;5095527;28;20054;-64
2021/04/17 00:11:18;;;;;;;9.90;4.68;;;;;;;;;;5094407;28;20107;-64
2021/04/17 00:13:44;;;;;;;8.30;4.95;;;;;;;;;;5095331;28;20020;-65
2021/04/17 00:16:10;;;;;;;6.70;4.20;;;;;;;;;;5095925;28;20032;-64
2021/04/17 00:18:36;;;;;;;9.43;5.30;;;;;;;;;;5093784;28;20016;-64
2021/04/17 00:21:03;;;;;;;10.50;5.25;;;;;;;;;;5095470;28;20024;-64
2021/04/17 00:23:30;;;;;;;7.22;4.15;;;;;;;;;;5095487;28;20522;-64
2021/04/17 00:25:56;;;;;;;8.27;4.65;;;;;;;;;;5095560;28;20032;-64
2021/04/17 00:28:22;;;;;;;7.22;4.43;;;;;;;;;;5094107;28;20029;-65
2021/04/17 00:30:48;;;;;;;17.90;5.32;;;;;;;;;;5094119;28;20028;-66
2021/04/17 00:33:14;;;;;;;8.70;4.05;;;;;;;;;;5094847;28;20035;-64
2021/04/17 00:35:40;;;;;;;6.75;3.95;;;;;;;;;;5095322;28;20031;-64
2021/04/17 00:38:07;;;;;;;6.35;3.38;;;;;;;;;;5095249;28;20122;-64
2021/04/17 00:40:33;;;;;;;7.38;4.00;;;;;;;;;;5094873;28;20028;-64
2021/04/17 00:42:59;;;;;;;7.90;4.15;;;;;;;;;;5095188;28;20516;-64
2021/04/17 00:45:25;;;;;;;8.40;4.03;;;;;;;;;;5095298;28;20039;-64
2021/04/17 00:47:51;;;;;;;8.70;3.95;;;;;;;;;;5094513;28;20032;-65
2021/04/17 00:50:18;;;;;;;6.65;3.97;;;;;;;;;;5095022;28;20028;-64
2021/04/17 00:52:44;;;;;;;8.73;5.22;;;;;;;;;;5094944;28;20422;-64
2021/04/17 00:55:11;;;;;;;12.05;5.90;;;;;;;;;;5094525;28;20036;-64
2021/04/17 00:57:38;;;;;;;11.82;5.60;;;;;;;;;;5093535;28;20024;-66
2021/04/17 01:00:08;;;;;;;12.32;5.22;;;;;;;;;;5094911;28;20081;-65
2021/04/17 01:02:37;;;;;;;11.60;5.00;;;;;;;;;;5094481;28;20313;-65
2021/04/17 01:05:06;;;;;;;9.90;4.53;;;;;;;;;;5093734;28;20051;-65
2021/04/17 01:07:51;;;;;;;12.07;5.30;;;;;;;;;;5094419;28;20384;-65
2021/04/17 01:10:35;;;;;;;9.38;5.00;;;;;;;;;;5093339;28;20055;-65
2021/04/17 01:13:02;;;;;;;7.35;4.40;;;;;;;;;;5094497;28;20035;-64
2021/04/17 01:15:29;;;;;;;9.38;4.95;;;;;;;;;;5094141;28;20031;-65
2021/04/17 01:17:56;;;;;;;10.82;5.00;;;;;;;;;;5094393;28;20040;-65
2021/04/17 01:20:31;;;;;;;12.15;5.13;;;;;;;;;;5094414;28;20067;-65
2021/04/17 01:23:03;;;;;;;7.80;4.30;;;;;;;;;;5092732;28;20107;-65
2021/04/17 01:25:34;;;;;;;9.30;4.47;;;;;;;;;;5093257;28;20028;-65
2021/04/17 01:28:00;;;;;;;7.30;3.97;;;;;;;;;;5093002;28;20119;-65
2021/04/17 01:30:26;;;;;;;8.20;4.93;;;;;;;;;;5093853;28;20464;-63
2021/04/17 01:32:52;;;;;;;7.20;4.18;;;;;;;;;;5094173;28;20532;-64
2021/04/17 01:35:21;;;;;;;10.38;5.43;;;;;;;;;;5094066;28;20102;-64
2021/04/17 01:38:01;;;;;;;8.63;4.72;;;;;;;;;;5092397;28;20028;-64
2021/04/17 01:40:28;;;;;;;8.25;4.35;;;;;;;;;;5094122;28;20111;-64
2021/04/17 01:42:55;;;;;;;9.85;5.43;;;;;;;;;;5094059;28;20420;-63
2021/04/17 01:45:23;;;;;;;10.68;4.97;;;;;;;;;;5094625;28;20016;-64
2021/04/17 01:47:50;;;;;;;8.63;5.22;;;;;;;;;;5093821;28;20141;-64
2021/04/17 01:50:17;;;;;;;11.57;5.95;;;;;;;;;;5093587;28;20036;-64
2021/04/17 01:52:44;;;;;;;8.02;4.20;;;;;;;;;;5093774;28;20510;-64
2021/04/17 01:55:12;;;;;;;7.43;4.68;;;;;;;;;;5092507;28;20031;-64
2021/04/17 01:57:39;;;;;;;9.35;5.22;;;;;;;;;;5093439;28;20027;-64
2021/04/17 02:00:06;;;;;;;8.50;4.32;;;;;;;;;;5093702;28;20028;-64
2021/04/17 02:02:33;;;;;;;8.70;4.05;;;;;;;;;;5093806;28;20031;-64
2021/04/17 02:04:59;;;;;;;9.43;5.68;;;;;;;;;;5093567;28;20055;-63
2021/04/17 02:07:25;;;;;;;7.57;4.57;;;;;;;;;;5093314;28;20057;-64
2021/04/17 02:09:51;;;;;;;6.95;4.13;;;;;;;;;;5093497;28;20025;-64
2021/04/17 02:12:18;;;;;;;8.07;4.88;;;;;;;;;;5093163;28;20031;-64
2021/04/17 02:14:44;;;;;;;10.20;5.07;;;;;;;;;;5092156;28;20032;-64
2021/04/17 02:17:15;;;;;;;8.82;5.10;;;;;;;;;;5092901;28;20020;-64
2021/04/17 02:19:53;;;;;;;10.13;5.05;;;;;;;;;;5092980;28;20415;-64
2021/04/17 02:22:20;;;;;;;9.15;5.80;;;;;;;;;;5093476;28;20031;-65
2021/04/17 02:24:47;;;;;;;9.23;5.03;;;;;;;;;;5093552;28;20024;-64
2021/04/17 02:27:14;;;;;;;10.02;5.65;;;;;;;;;;5092845;28;20528;-64
2021/04/17 02:29:40;;;;;;;10.55;6.22;;;;;;;;;;5093092;28;20077;-64
2021/04/17 02:32:13;;;;;;;8.02;5.43;;;;;;;;;;5093196;28;20031;-64
2021/04/17 02:34:40;;;;;;;14.38;5.68;;;;;;;;;;5093162;28;20078;-64
2021/04/17 02:37:06;;;;;;;10.95;6.10;;;;;;;;;;5093356;28;20049;-64
2021/04/17 02:39:32;;;;;;;8.35;5.30;;;;;;;;;;5092627;28;20103;-64
2021/04/17 02:41:58;;;;;;;10.25;6.60;;;;;;;;;;5093097;28;20036;-64
2021/04/17 02:44:24;;;;;;;11.13;6.05;;;;;;;;;;5093126;28;20026;-64
2021/04/17 02:46:50;;;;;;;12.10;6.85;;;;;;;;;;5092466;28;20024;-64
2021/04/17 02:49:17;;;;;;;11.23;5.88;;;;;;;;;;5091490;28;20028;-64
2021/04/17 02:51:43;;;;;;;11.02;7.22;;;;;;;;;;5091554;28;20380;-63
2021/04/17 02:54:10;;;;;;;11.23;6.13;;;;;;;;;;5092411;28;20130;-64
2021/04/17 02:56:36;;;;;;;11.82;7.03;;;;;;;;;;5092804;28;20421;-64
2021/04/17 02:59:02;;;;;;;13.35;7.85;;;;;;;;;;5092662;28;20107;-64
2021/04/17 03:01:29;;;;;;;11.68;7.07;;;;;;;;;;5092273;28;20020;-64
2021/04/17 03:03:55;;;;;;;11.43;7.15;;;;;;;;;;5092938;28;20078;-64
2021/04/17 03:06:21;;;;;;;15.20;7.43;;;;;;;;;;5091468;28;20017;-64
2021/04/17 03:08:47;;;;;;;15.13;8.48;;;;;;;;;;5090638;28;20048;-64
2021/04/17 03:11:14;;;;;;;13.02;7.50;;;;;;;;;;5092624;28;20029;-64
2021/04/17 03:13:40;;;;;;;12.63;7.22;;;;;;;;;;5092549;28;20523;-64
2021/04/17 03:16:06;;;;;;;13.40;8.30;;;;;;;;;;5092015;28;20020;-64
2021/04/17 03:18:33;;;;;;;14.88;8.00;;;;;;;;;;5092632;28;20081;-64
2021/04/17 03:20:59;;;;;;;10.90;6.93;;;;;;;;;;5092720;28;20060;-64
2021/04/17 03:23:25;;;;;;;12.65;7.35;;;;;;;;;;5092261;28;20032;-64
2021/04/17 03:25:51;;;;;;;10.38;6.07;;;;;;;;;;5092471;28;20028;-64
2021/04/17 03:28:18;;;;;;;10.93;6.85;;;;;;;;;;5092434;28;20028;-63
2021/04/17 03:30:44;;;;;;;11.45;7.18;;;;;;;;;;5094834;28;20438;-64
2021/04/17 03:33:10;;;;;;;12.80;6.13;;;;;;;;;;5096485;28;20051;-64
2021/04/17 03:35:36;;;;;;;12.55;7.85;;;;;;;;;;5096030;28;20523;-64
2021/04/17 03:38:03;;;;;;;11.60;6.78;;;;;;;;;;5096471;28;20030;-64
2021/04/17 03:40:30;;;;;;;11.77;6.25;;;;;;;;;;5095320;28;20081;-64
2021/04/17 03:42:56;;;;;;;15.18;6.63;;;;;;;;;;5096121;28;20016;-64
2021/04/17 03:45:22;;;;;;;10.95;6.05;;;;;;;;;;5096306;28;20031;-64
2021/04/17 03:47:49;;;;;;;11.13;6.38;;;;;;;;;;5096211;28;20038;-64
2021/04/17 03:50:15;;;;;;;12.45;7.03;;;;;;;;;;5095885;28;20384;-64
2021/04/17 03:52:42;;;;;;;10.93;6.70;;;;;;;;;;5096158;28;20066;-64
2021/04/17 03:55:10;;;;;;;10.82;6.38;;;;;;;;;;5096085;28;20064;-64
2021/04/17 03:57:36;;;;;;;13.23;6.75;;;;;;;;;;5095773;28;20470;-64
2021/04/17 04:00:04;;;;;;;14.57;6.50;;;;;;;;;;5096490;28;20407;-64
2021/04/17 04:02:30;;;;;;;11.10;6.97;;;;;;;;;;5096301;28;20028;-64
2021/04/17 04:04:56;;;;;;;15.63;7.55;;;;;;;;;;5094162;28;20028;-64
2021/04/17 04:07:22;;;;;;;13.13;7.03;;;;;;;;;;5095640;28;20020;-64
2021/04/17 04:09:49;;;;;;;13.32;6.72;;;;;;;;;;5095807;28;20680;-64
2021/04/17 04:12:15;;;;;;;13.07;6.20;;;;;;;;;;5095365;28;20020;-64
2021/04/17 04:14:41;;;;;;;12.88;7.03;;;;;;;;;;5095659;28;20032;-64
2021/04/17 04:17:07;;;;;;;14.48;6.55;;;;;;;;;;5095685;28;20472;-64
2021/04/17 04:19:33;;;;;;;13.00;7.68;;;;;;;;;;5094392;28;20032;-64
2021/04/17 04:22:00;;;;;;;9.88;6.07;;;;;;;;;;5095747;28;20016;-64
2021/04/17 04:24:26;;;;;;;9.90;6.50;;;;;;;;;;5095543;28;20043;-64
2021/04/17 04:26:52;;;;;;;14.63;7.90;;;;;;;;;;5095128;28;20025;-64
2021/04/17 04:29:18;;;;;;;14.07;8.35;;;;;;;;;;5095362;28;20089;-64
2021/04/17 04:31:44;;;;;;;9.32;6.15;;;;;;;;;;5095002;28;20017;-65
2021/04/17 04:34:10;;;;;;;9.80;6.65;;;;;;;;;;5095365;28;20172;-64
2021/04/17 04:36:37;;;;;;;11.30;6.60;;;;;;;;;;5095408;28;20099;-64
2021/04/17 04:39:04;;;;;;;10.55;6.88;;;;;;;;;;5094981;28;20024;-64
2021/04/17 04:41:30;;;;;;;9.82;6.38;;;;;;;;;;5094890;28;20023;-64
2021/04/17 04:43:57;;;;;;;14.70;7.97;;;;;;;;;;5093859;28;20387;-64
2021/04/17 04:46:23;;;;;;;11.45;6.82;;;;;;;;;;5094751;28;20027;-64
2021/04/17 04:48:49;;;;;;;12.65;7.45;;;;;;;;;;5093643;28;20032;-64
2021/04/17 04:51:15;;;;;;;11.05;6.50;;;;;;;;;;5093601;28;20024;-64
2021/04/17 04:53:41;;;;;;;11.32;6.38;;;;;;;;;;5094577;28;20097;-64
2021/04/17 04:56:07;;;;;;;12.18;7.90;;;;;;;;;;5094826;28;20024;-64
2021/04/17 04:58:34;;;;;;;13.68;5.85;;;;;;;;;;5094981;28;20032;-64
2021/04/17 05:01:00;;;;;;;12.73;7.35;;;;;;;;;;5093315;28;20024;-65
2021/04/17 05:03:26;;;;;;;14.25;8.98;;;;;;;;;;5094827;28;20077;-64
2021/04/17 05:05:52;;;;;;;13.98;8.82;;;;;;;;;;5094811;28;20091;-64
2021/04/17 05:08:18;;;;;;;13.05;8.57;;;;;;;;;;5094027;28;20133;-64
2021/04/17 05:10:45;;;;;;;13.95;8.23;;;;;;;;;;5094670;28;20028;-64
2021/04/17 05:13:11;;;;;;;17.60;10.18;;;;;;;;;;5093383;28;20417;-64
2021/04/17 05:15:37;;;;;;;22.38;11.25;;;;;;;;;;5094188;28;20031;-64
2021/04/17 05:18:03;;;;;;;25.38;14.02;;;;;;;;;;5093288;28;20040;-64
2021/04/17 05:20:29;;;;;;;20.83;11.38;;;;;;;;;;5093322;28;20074;-64
2021/04/17 05:22:56;;;;;;;17.80;9.82;;;;;;;;;;5094010;28;20020;-64
2021/04/17 05:25:22;;;;;;;14.70;9.98;;;;;;;;;;5094309;28;20073;-65
2021/04/17 05:27:48;;;;;;;19.52;12.10;;;;;;;;;;5092795;28;20020;-64
2021/04/17 05:30:14;;;;;;;19.70;14.57;;;;;;;;;;5093865;28;20031;-64
2021/04/17 05:32:41;;;;;;;18.20;11.85;;;;;;;;;;5094208;28;20024;-64
2021/04/17 05:35:08;;;;;;;16.92;10.93;;;;;;;;;;5093749;28;20054;-64
2021/04/17 05:37:34;;;;;;;18.95;12.52;;;;;;;;;;5094255;28;20024;-63
2021/04/17 05:40:00;;;;;;;15.60;11.43;;;;;;;;;;5094167;28;20481;-67
2021/04/17 05:42:26;;;;;;;17.42;11.05;;;;;;;;;;5093604;28;20028;-64
2021/04/17 05:44:53;;;;;;;18.42;11.63;;;;;;;;;;5094066;28;20030;-64
2021/04/17 05:47:19;;;;;;;15.75;10.93;;;;;;;;;;5093879;28;20027;-64
2021/04/17 05:49:45;;;;;;;16.60;9.60;;;;;;;;;;5093468;28;20043;-64
2021/04/17 05:52:11;;;;;;;22.15;12.55;;;;;;;;;;5093057;28;20020;-64
2021/04/17 05:54:38;;;;;;;18.10;11.73;;;;;;;;;;5093778;28;20024;-64
2021/04/17 05:57:04;;;;;;;21.25;11.65;;;;;;;;;;5093518;28;20031;-63
2021/04/17 05:59:30;;;;;;;20.00;12.52;;;;;;;;;;5094240;28;20035;-63
2021/04/17 06:01:57;;;;;;;22.88;11.57;;;;;;;;;;5092384;28;20022;-65
2021/04/17 06:04:23;;;;;;;20.38;11.45;;;;;;;;;;5093250;28;20077;-65
2021/04/17 06:06:49;;;;;;;24.85;14.23;;;;;;;;;;5092259;28;20023;-65
2021/04/17 06:09:15;;;;;;;21.80;14.15;;;;;;;;;;5091960;28;20576;-65
2021/04/17 06:11:42;;;;;;;27.50;13.18;;;;;;;;;;5093155;28;20035;-65
2021/04/17 06:14:09;;;;;;;30.77;17.00;;;;;;;;;;5093536;28;20165;-64
2021/04/17 06:16:35;;;;;;;24.15;14.43;;;;;;;;;;5092249;28;20387;-65
2021/04/17 06:19:01;;;;;;;24.52;14.48;;;;;;;;;;5093256;28;20027;-65
2021/04/17 06:21:27;;;;;;;30.75;16.85;;;;;;;;;;5093509;28;20030;-64
2021/04/17 06:23:53;;;;;;;31.90;17.92;;;;;;;;;;5092086;28;20028;-65
2021/04/17 06:26:20;;;;;;;32.83;18.08;;;;;;;;;;5091707;28;20103;-65
2021/04/17 06:28:46;;;;;;;32.88;18.02;;;;;;;;;;5093170;28;20032;-65
2021/04/17 06:31:12;;;;;;;43.90;23.15;;;;;;;;;;5093066;28;20051;-64
2021/04/17 06:33:38;;;;;;;36.83;21.35;;;;;;;;;;5092789;28;20409;-64
2021/04/17 06:36:06;;;;;;;30.17;17.85;;;;;;;;;;5093047;28;20024;-64
2021/04/17 06:38:32;;;;;;;41.67;22.15;;;;;;;;;;5092840;28;20078;-64
2021/04/17 06:40:58;;;;;;;28.20;18.20;;;;;;;;;;5091816;28;20024;-64
2021/04/17 06:43:27;;;;;;;26.92;17.25;;;;;;;;;;5093001;28;20032;-64
2021/04/17 06:45:58;;;;;;;29.48;19.75;;;;;;;;;;5091276;28;20123;-64
2021/04/17 06:48:24;;;;;;;28.52;17.88;;;;;;;;;;5092860;28;20024;-67
2021/04/17 06:50:51;;;;;;;17.45;12.43;;;;;;;;;;5092905;28;20020;-64
2021/04/17 06:53:19;;;;;;;21.50;14.23;;;;;;;;;;5091228;28;20055;-64
2021/04/17 06:55:49;;;;;;;23.90;15.43;;;;;;;;;;5091613;28;20044;-65
2021/04/17 06:58:17;;;;;;;19.85;13.40;;;;;;;;;;5092943;28;20070;-65
2021/04/17 07:00:43;;;;;;;22.58;14.48;;;;;;;;;;5092364;28;20024;-64
2021/04/17 07:03:09;;;;;;;18.60;11.82;;;;;;;;;;5091284;28;20024;-65
2021/04/17 07:05:35;;;;;;;17.00;11.02;;;;;;;;;;5092759;28;20579;-65
2021/04/17 07:08:02;;;;;;;23.40;14.30;;;;;;;;;;5092203;28;20048;-65
2021/04/17 07:10:28;;;;;;;22.75;13.50;;;;;;;;;;5091439;28;20043;-65
2021/04/17 07:13:14;;;;;;;21.65;13.60;;;;;;;;;;5092677;28;20026;-64
2021/04/17 07:15:41;;;;;;;21.08;12.02;;;;;;;;;;5091248;28;20024;-64
2021/04/17 07:18:26;;;;;;;20.73;13.82;;;;;;;;;;5091525;28;20111;-64
2021/04/17 07:20:53;;;;;;;19.23;12.52;;;;;;;;;;5090908;28;20028;-65
2021/04/17 07:23:39;;;;;;;27.58;16.38;;;;;;;;;;5092513;28;20024;-65
2021/04/17 07:26:09;;;;;;;35.80;20.58;;;;;;;;;;5092396;28;20044;-64
2021/04/17 07:28:36;;;;;;;33.40;21.20;;;;;;;;;;5091918;28;20032;-65
2021/04/17 07:31:03;;;;;;;28.13;16.95;;;;;;;;;;5091145;28;20403;-65
2021/04/17 07:33:29;;;;;;;22.75;15.02;;;;;;;;;;5092332;28;20028;-64
2021/04/17 07:35:56;;;;;;;29.50;17.02;;;;;;;;;;5092259;28;20122;-64
2021/04/17 07:38:27;;;;;;;24.38;16.17;;;;;;;;;;5092728;28;20088;-64
2021/04/17 07:41:01;;;;;;;36.97;21.77;;;;;;;;;;5092448;28;20028;-64
2021/04/17 07:44:03;;;;;;;21.45;13.25;;;;;;;;;;5092015;28;20442;-64
2021/04/17 07:46:40;;;;;;;16.23;10.95;;;;;;;;;;5029881;28;20079;-64
2021/04/17 07:49:11;;;;;;;24.38;16.42;;;;;;;;;;5083907;28;20048;-64
2021/04/17 07:51:56;;;;;;;26.90;19.20;;;;;;;;;;5092284;28;20016;-65
2021/04/17 07:54:22;;;;;;;15.00;10.70;;;;;;;;;;5092304;28;20384;-65
2021/04/17 07:56:49;;;;;;;14.85;10.95;;;;;;;;;;5092069;28;20028;-65
2021/04/17 07:59:19;;;;;;;18.02;11.32;;;;;;;;;;5090952;28;20054;-65
2021/04/17 08:01:45;;;;;;;26.83;19.35;;;;;;;;;;5092309;28;20024;-65
2021/04/17 08:04:12;;;;;;;27.70;17.58;;;;;;;;;;5091757;28;20024;-64
2021/04/17 08:06:38;;;;;;;24.83;18.98;;;;;;;;;;5092079;28;20031;-65
2021/04/17 08:09:07;;;;;;;21.95;14.25;;;;;;;;;;5091959;28;20131;-65
2021/04/17 08:11:34;;;;;;;19.92;15.40;;;;;;;;;;5091575;28;20523;-65
2021/04/17 08:14:00;;;;;;;24.60;18.08;;;;;;;;;;5091984;28;20043;-65
2021/04/17 08:16:26;;;;;;;25.08;17.17;;;;;;;;;;5094276;28;20046;-65
2021/04/17 08:18:53;;;;;;;23.77;16.25;;;;;;;;;;5095378;28;20024;-65
2021/04/17 08:21:20;;;;;;;23.70;14.55;;;;;;;;;;5095695;28;20032;-65
2021/04/17 08:23:49;;;;;;;18.05;12.68;;;;;;;;;;5095627;28;20047;-65
2021/04/17 08:26:15;;;;;;;22.92;15.68;;;;;;;;;;5094443;28;20016;-65
2021/04/17 08:28:51;;;;;;;22.88;15.18;;;;;;;;;;5095432;28;20063;-64
2021/04/17 08:31:21;;;;;;;28.80;17.85;;;;;;;;;;5095098;28;20016;-65
2021/04/17 08:34:07;;;;;;;22.58;15.93;;;;;;;;;;5095379;28;20073;-64
2021/04/17 08:36:39;;;;;;;24.23;15.27;;;;;;;;;;5095600;28;20468;-64
2021/04/17 08:39:06;;;;;;;24.50;14.45;;;;;;;;;;5094948;28;20028;-64
2021/04/17 08:41:40;;;;;;;21.17;14.20;;;;;;;;;;5095158;28;20540;-64
2021/04/17 08:44:24;;;;;;;28.17;19.00;;;;;;;;;;5095179;28;20020;-64
2021/04/17 08:46:51;;;;;;;25.58;19.15;;;;;;;;;;5093449;28;20103;-64
2021/04/17 08:49:27;;;;;;;20.80;13.18;;;;;;;;;;5094921;28;20038;-64
2021/04/17 08:52:22;;;;;;;18.25;12.02;;;;;;;;;;5095131;28;20044;-65
2021/04/17 08:54:55;;;;;;;17.67;11.82;;;;;;;;;;5095195;28;20123;-65
2021/04/17 08:57:22;;;;;;;27.57;17.20;;;;;;;;;;5093890;28;20365;-65
2021/04/17 08:59:59;;;;;;;21.42;12.82;;;;;;;;;;5094679;28;20027;-65
2021/04/17 09:02:26;;;;;;;19.13;11.73;;;;;;;;;;5093655;28;20486;-65
2021/04/17 09:05:07;;;;;;;19.38;13.02;;;;;;;;;;5093459;28;20023;-65
2021/04/17 09:07:35;;;;;;;21.35;13.32;;;;;;;;;;5092989;28;20055;-65
2021/04/17 09:10:31;;;;;;;30.42;18.35;;;;;;;;;;5094881;28;20530;-65
2021/04/17 09:13:10;;;;;;;20.15;13.45;;;;;;;;;;5077086;28;20024;-64
2021/04/17 09:15:50;;;;;;;19.15;11.35;;;;;;;;;;5093340;28;20028;-65
2021/04/17 09:18:46;;;;;;;16.90;11.68;;;;;;;;;;5093415;28;20024;-64
2021/04/17 09:21:31;;;;;;;16.42;11.55;;;;;;;;;;5081294;28;20036;-64
2021/04/17 09:23:58;;;;;;;18.90;12.07;;;;;;;;;;5094565;28;20059;-65
2021/04/17 09:26:33;;;;;;;14.88;10.48;;;;;;;;;;5094354;28;20049;-64
2021/04/17 09:29:00;;;;;;;16.70;11.82;;;;;;;;;;5093707;28;20035;-65
2021/04/17 09:31:26;;;;;;;18.83;13.02;;;;;;;;;;5094229;28;20055;-65
2021/04/17 09:34:02;;;;;;;15.60;10.48;;;;;;;;;;5094208;28;20016;-65
2021/04/17 09:36:29;;;;;;;19.98;11.25;;;;;;;;;;5094090;28;20028;-65
2021/04/17 09:38:55;;;;;;;27.83;18.10;;;;;;;;;;5092915;28;20035;-65
2021/04/17 09:41:22;;;;;;;23.83;14.40;;;;;;;;;;5093662;28;20016;-65
2021/04/17 09:43:55;;;;;;;26.35;15.25;;;;;;;;;;5094420;28;20031;-65
2021/04/17 09:46:22;;;;;;;;;;;;;;;;;;5093222;28;20024;-65
2021/04/17 09:48:48;;;;;;;24.80;16.13;;;;;;;;;;5092156;28;20018;-65
2021/04/17 09:51:21;;;;;;;38.72;21.88;;;;;;;;;;5093942;28;20016;-65
2021/04/17 09:53:48;;;;;;;32.08;18.35;;;;;;;;;;5094005;28;20024;-65
2021/04/17 09:56:25;;;;;;;25.38;15.25;;;;;;;;;;5093625;28;20423;-65
2021/04/17 09:58:52;;;;;;;19.27;13.32;;;;;;;;;;5093884;28;20030;-65
2021/04/17 10:01:18;;;;;;;19.73;13.25;;;;;;;;;;5093663;28;20016;-65
2021/04/17 10:03:45;;;;;;;22.10;13.38;;;;;;;;;;5093237;28;20020;-65
2021/04/17 10:06:27;;;;;;;27.02;15.65;;;;;;;;;;5093635;28;20020;-65
2021/04/17 10:08:54;;;;;;;28.63;18.13;;;;;;;;;;5093177;28;20044;-65
2021/04/17 10:11:25;;;;;;;29.30;18.50;;;;;;;;;;5092991;28;20043;-65
2021/04/17 10:13:51;;;;;;;22.95;16.08;;;;;;;;;;5092132;28;20059;-65
2021/04/17 10:16:24;;;;;;;21.70;15.05;;;;;;;;;;5092374;28;20028;-65
2021/04/17 10:18:50;;;;;;;24.25;13.85;;;;;;;;;;5093647;28;20027;-65
2021/04/17 10:21:16;;;;;;;25.23;14.95;;;;;;;;;;5093471;28;20028;-65
2021/04/17 10:23:42;;;;;;;18.25;12.90;;;;;;;;;;5092910;28;20447;-65
2021/04/17 10:26:10;;;;;;;24.20;15.10;;;;;;;;;;5093292;28;20024;-65
2021/04/17 10:28:37;;;;;;;31.05;18.20;;;;;;;;;;5091834;28;20028;-65
2021/04/17 10:31:19;;;;;;;18.50;12.05;;;;;;;;;;5092723;28;20020;-65
2021/04/17 10:33:46;;;;;;;18.45;11.40;;;;;;;;;;5093106;28;20027;-66
2021/04/17 10:36:18;;;;;;;21.05;11.60;;;;;;;;;;5093291;28;20103;-66
2021/04/17 10:38:45;;;;;;;19.33;12.65;;;;;;;;;;5092327;28;20024;-64
2021/04/17 10:41:18;;;;;;;34.88;20.98;;;;;;;;;;5092932;28;20017;-65
2021/04/17 10:43:44;;;;;;;29.58;16.10;;;;;;;;;;5093101;28;20050;-65
2021/04/17 10:46:10;;;;;;;32.83;16.23;;;;;;;;;;5091258;28;20024;-65
2021/04/17 10:48:44;;;;;;;26.52;14.38;;;;;;;;;;5092895;28;20032;-65
2021/04/17 10:51:11;;;;;;;30.77;17.65;;;;;;;;;;5091644;28;20402;-65
2021/04/17 10:53:41;;;;;;;21.65;13.95;;;;;;;;;;5092505;28;20495;-66
2021/04/17 10:56:18;;;;;;;22.05;14.38;;;;;;;;;;5093021;28;20021;-65
2021/04/17 10:58:45;;;;;;;17.23;10.65;;;;;;;;;;5092595;28;20048;-65
2021/04/17 11:01:18;;;;;;;17.58;12.30;;;;;;;;;;5092822;28;20361;-65
2021/04/17 11:03:54;;;;;;;20.38;12.25;;;;;;;;;;5092753;28;20455;-66
2021/04/17 11:06:21;;;;;;;25.88;19.17;;;;;;;;;;5092427;28;20024;-65
2021/04/17 11:08:49;;;;;;;24.30;17.40;;;;;;;;;;5091008;28;20059;-65
2021/04/17 11:11:17;;;;;;;29.20;15.63;;;;;;;;;;5092669;28;20035;-65
2021/04/17 11:13:44;;;;;;;21.60;13.23;;;;;;;;;;5092228;28;20499;-66
2021/04/17 11:16:14;;;;;;;23.88;16.13;;;;;;;;;;5091375;28;20035;-65
2021/04/17 11:18:41;;;;;;;20.58;12.13;;;;;;;;;;5091519;28;20016;-65
2021/04/17 11:21:13;;;;;;;21.73;13.18;;;;;;;;;;5092113;28;20069;-65
2021/04/17 11:23:45;;;;;;;23.67;13.48;;;;;;;;;;5091120;28;20028;-65
2021/04/17 11:26:17;;;;;;;21.25;13.23;;;;;;;;;;5092522;28;20021;-66
2021/04/17 11:28:44;;;;;;;23.50;13.18;;;;;;;;;;5092158;28;20036;-64
2021/04/17 11:31:11;;;;;;;23.08;14.68;;;;;;;;;;5091225;28;20024;-66
2021/04/17 11:33:38;;;;;;;23.25;14.30;;;;;;;;;;5092479;28;20107;-66
2021/04/17 11:36:05;;;;;;;22.65;14.35;;;;;;;;;;5090971;28;20503;-65
2021/04/17 11:38:31;;;;;;;30.38;19.45;;;;;;;;;;5091345;28;20028;-65
2021/04/17 11:40:57;;;;;;;34.10;21.35;;;;;;;;;;5092096;28;20027;-65
2021/04/17 11:43:23;;;;;;;33.63;20.58;;;;;;;;;;5092354;28;20032;-66
2021/04/17 11:45:51;;;;;;;28.35;17.08;;;;;;;;;;5092360;28;20107;-65
2021/04/17 11:48:18;;;;;;;24.40;15.32;;;;;;;;;;5090618;28;20032;-66
2021/04/17 11:50:44;;;;;;;19.08;13.68;;;;;;;;;;5092029;28;20032;-66
2021/04/17 11:53:11;;;;;;;22.65;15.38;;;;;;;;;;5096196;28;20024;-66
2021/04/17 11:55:37;;;;;;;30.42;18.73;;;;;;;;;;5094556;28;20024;-66
2021/04/17 11:58:03;;;;;;;19.92;13.40;;;;;;;;;;5096366;28;20483;-64
2021/04/17 12:00:29;;;;;;;32.03;19.13;;;;;;;;;;5094791;28;20035;-66
2021/04/17 12:02:56;;;;;;;33.80;20.67;;;;;;;;;;5094629;28;20405;-66
2021/04/17 12:05:22;;;;;;;26.25;17.00;;;;;;;;;;5095984;28;20024;-66
2021/04/17 12:07:48;;;;;;;21.60;14.43;;;;;;;;;;5094393;28;20048;-64
2021/04/17 12:10:17;;;;;;;26.48;17.90;;;;;;;;;;5095506;28;20058;-66
2021/04/17 12:12:43;;;;;;;19.50;11.63;;;;;;;;;;5095892;28;20541;-66
2021/04/17 12:15:09;;;;;;;21.75;13.35;;;;;;;;;;5094442;28;20020;-65
2021/04/17 12:17:36;;;;;;;25.13;15.20;;;;;;;;;;5095550;28;20077;-64
2021/04/17 12:20:02;;;;;;;22.73;14.05;;;;;;;;;;5094655;28;20031;-66
2021/04/17 12:22:28;;;;;;;25.20;17.40;;;;;;;;;;5095935;28;20052;-64
2021/04/17 12:24:54;;;;;;;37.58;25.70;;;;;;;;;;5095223;28;20031;-66
2021/04/17 12:27:20;;;;;;;29.05;18.40;;;;;;;;;;5095500;28;20028;-64
2021/04/17 12:29:47;;;;;;;30.50;20.15;;;;;;;;;;5094043;28;20485;-64
2021/04/17 12:32:13;;;;;;;24.60;15.85;;;;;;;;;;5095037;28;20024;-66
2021/04/17 12:34:39;;;;;;;27.20;18.27;;;;;;;;;;5094182;28;20438;-65
2021/04/17 12:37:05;;;;;;;24.77;16.77;;;;;;;;;;5095092;28;20017;-65
2021/04/17 12:39:32;;;;;;;20.55;14.23;;;;;;;;;;5095532;28;20418;-65
2021/04/17 12:41:58;;;;;;;27.42;14.90;;;;;;;;;;5094009;28;20024;-65
2021/04/17 12:44:24;;;;;;;31.25;18.15;;;;;;;;;;5094770;28;20434;-65
2021/04/17 12:46:50;;;;;;;33.85;19.40;;;;;;;;;;5095503;28;20376;-65
2021/04/17 12:49:17;;;;;;;40.58;25.70;;;;;;;;;;5095069;28;20114;-65
2021/04/17 12:51:43;;;;;;;30.60;18.88;;;;;;;;;;5093463;28;20028;-65
2021/04/17 12:54:09;;;;;;;40.58;22.52;;;;;;;;;;5095034;28;20392;-65
2021/04/17 12:56:35;;;;;;;28.38;16.58;;;;;;;;;;5093893;28;20255;-65
2021/04/17 12:59:02;;;;;;;17.45;11.13;;;;;;;;;;5095087;28;20020;-65
2021/04/17 13:01:29;;;;;;;21.23;13.43;;;;;;;;;;5094631;28;20101;-65
2021/04/17 13:03:55;;;;;;;21.85;14.10;;;;;;;;;;5094944;28;20028;-65
2021/04/17 13:06:21;;;;;;;20.33;13.35;;;;;;;;;;5094383;28;20529;-65
2021/04/17 13:08:48;;;;;;;19.15;14.13;;;;;;;;;;5094585;28;20048;-65
2021/04/17 13:11:14;;;;;;;22.02;14.20;;;;;;;;;;5094774;28;20095;-65
2021/04/17 13:13:40;;;;;;;23.95;15.20;;;;;;;;;;5093061;28;20036;-64
2021/04/17 13:16:06;;;;;;;22.63;13.80;;;;;;;;;;5094679;28;20028;-65
2021/04/17 13:18:32;;;;;;;25.88;17.00;;;;;;;;;;5093450;28;20016;-65
2021/04/17 13:20:59;;;;;;;22.30;14.57;;;;;;;;;;5094309;28;20051;-64
2021/04/17 13:23:25;;;;;;;33.28;21.38;;;;;;;;;;5094437;28;20533;-64
2021/04/17 13:25:51;;;;;;;27.23;16.88;;;;;;;;;;5094400;28;20031;-65
2021/04/17 13:28:17;;;;;;;23.30;16.75;;;;;;;;;;5093983;28;20100;-64
2021/04/17 13:30:43;;;;;;;25.08;14.93;;;;;;;;;;5093344;28;20039;-64
2021/04/17 13:33:10;;;;;;;27.42;19.80;;;;;;;;;;5094269;28;20016;-64
2021/04/17 13:35:36;;;;;;;31.85;22.02;;;;;;;;;;5093868;28;20024;-64
2021/04/17 13:38:02;;;;;;;29.80;19.73;;;;;;;;;;5094409;28;20425;-64
2021/04/17 13:40:28;;;;;;;28.70;18.13;;;;;;;;;;5094166;28;20047;-64
2021/04/17 13:42:54;;;;;;;32.03;20.33;;;;;;;;;;5094055;28;20073;-65
2021/04/17 13:45:21;;;;;;;31.52;21.65;;;;;;;;;;5094089;28;20099;-65
2021/04/17 13:47:47;;;;;;;27.30;17.45;;;;;;;;;;5093584;28;20052;-65
2021/04/17 13:50:14;;;;;;;18.85;12.80;;;;;;;;;;5093873;28;20119;-64
2021/04/17 13:52:40;;;;;;;21.13;13.98;;;;;;;;;;5093850;28;20028;-64
2021/04/17 13:55:07;;;;;;;24.05;17.48;;;;;;;;;;5093458;28;20546;-65
2021/04/17 13:57:33;;;;;;;23.58;15.75;;;;;;;;;;5094065;28;20488;-65
2021/04/17 13:59:59;;;;;;;27.42;19.25;;;;;;;;;;5094040;28;20027;-65
2021/04/17 14:02:25;;;;;;;33.10;21.95;;;;;;;;;;5091972;28;20039;-64
2021/04/17 14:04:52;;;;;;;30.58;18.08;;;;;;;;;;5093735;28;20099;-65
2021/04/17 14:07:19;;;;;;;25.27;17.95;;;;;;;;;;5093718;28;20028;-65
2021/04/17 14:09:45;;;;;;;26.38;18.10;;;;;;;;;;5093115;28;20032;-65
2021/04/17 14:12:12;;;;;;;30.88;19.67;;;;;;;;;;5092203;28;20031;-65
2021/04/17 14:14:38;;;;;;;34.92;23.10;;;;;;;;;;5092816;28;20113;-65
2021/04/17 14:17:04;;;;;;;32.75;22.80;;;;;;;;;;5091820;28;20028;-65
2021/04/17 14:19:30;;;;;;;29.52;20.45;;;;;;;;;;5093592;28;20027;-64
2021/04/17 14:21:56;;;;;;;40.28;24.10;;;;;;;;;;5092193;28;20020;-64
2021/04/17 14:24:22;;;;;;;42.20;24.88;;;;;;;;;;5092996;28;20032;-65
2021/04/17 14:26:49;;;;;;;28.23;20.27;;;;;;;;;;5093167;28;20077;-66
2021/04/17 14:29:15;;;;;;;31.98;19.75;;;;;;;;;;5093024;28;20387;-65